KPWTPAUN

Guest
Details From KPWT - Bremerton National
To PAUN - Unalakleet
Flight Number -
Tags Generated
Created
Modified
Stats Distance 1,582 nm / 2,930 km
Max Altitude 0 ft / 0 m
Waypoints 6
Social Downloads 0
Likes 0
Share VATSIM

Download

Looking for another format? Having issues loading an existing format? Contact us
Advertisement - Login to hide

Notes

Generated

Route

KPWT ATUNA JOH SITWE YAGUN PAUN

ID Type Via Altitude Latitude Longitude Leg Dist Tot Dist Heading (true) Name
O KPWT APT - 0 ft / 0 m 47.48333˚ -122.77138˚ - 0 nm - -
ATUNA FIX - 0 ft / 0 m 50.37319˚ -126.53106˚ 228 nm 228 nm 321° / 318° -
JOH VOR - 0 ft / 0 m 60.48094˚ -146.59933˚ 907 nm 1136 nm 320° / 303° JOHNSTONE POINT VOR-DME
SITWE FIX - 0 ft / 0 m 62.25000˚ -153.00000˚ 212 nm 1348 nm 303° / 297° -
YAGUN FIX - 0 ft / 0 m 63.80489˚ -160.15525˚ 215 nm 1564 nm 299° / 292° -
O PAUN APT - 0 ft / 0 m 63.88345˚ -160.79903˚ 17 nm 1582 nm 286° / 285° -

Altitude Profile

Advertisement - Login to hide

Weather


0- 5 10 15 20 25 30 35+ Temperature / ° C

Clouds and Precipitation
Forecast for 2017-12-19 00:00 UTC. Updated an hour ago

Ground ~20,000 ft ~40,000 ft Winds

KPWT

Details ICAO KPWT (PWT)
Name Bremerton National
Region United States
Timezone America/Los_Angeles (UTC-8.0)
Stats Elevation 444 ft / 135 m (AMSL)
Location 47.490240° -122.764815°
Runways 1
Magnetic Variation 15.774° E

METAR

KPWT 181956Z AUTO 09005KT 3SM -RA BR BKN006 OVC014 07/06 A3012 RMK AO2 CIG 004V010 SLP219 P0001 T00670061

Decode

TAF

TAF KPWT 181729Z 1818/1918 08005KT 3SM -RA OVC004 FM182000 06004KT P6SM -RA OVC015 FM190100 VRB03KT 5SM -RA SCT010 OVC020 FM190400 15003KT 3SM -RA BR OVC008

Decode

Departure Runways

ID Width Length Bearing (true) Bearing (mag) Surface Threshold Offset Overrun Length
01 151 ft / 46 m 5,997 ft / 1,828 m 32.69° 16.92° Asphalt 0 ft / 0 m 0 ft / 0 m
19 151 ft / 46 m 5,997 ft / 1,828 m 212.70° 196.93° Asphalt 0 ft / 0 m 1,243 ft / 379 m

PAUN

Details ICAO PAUN (UNK)
Name Unalakleet
Region USA (Alaska)
Timezone America/Anchorage (UTC-9.0)
Stats Elevation 68 ft / 21 m (AMSL)
Location 63.886590° -160.796931°
Runways 2
Magnetic Variation 12.173° E

METAR

PAUN 181956Z AUTO 08021G28KT 8SM -SN FEW016 BKN047 OVC055 M05/M08 A2987 RMK AO2 PK WND 08028/1952 SNB45 SLP119 P0000 T10501083 FZRANO

Decode

TAF

PAUN 181942Z 1820/1918 10018G26KT 5SM -SN BR SCT012 OVC035 FM182100 09025G35KT 1SM -SN BLSN BR BKN015 OVC025 FM190600 12035G42KT 1/2SM SN BLSN FG OVC007

Decode

Destination Runways

ID Width Length Bearing (true) Bearing (mag) Surface Threshold Offset Overrun Length
15 151 ft / 46 m 5,990 ft / 1,826 m 164.15° 151.98° Asphalt 0 ft / 0 m 499 ft / 152 m
26 79 ft / 24 m 1,993 ft / 608 m 278.43° 266.26° Asphalt 0 ft / 0 m 0 ft / 0 m
33 151 ft / 46 m 5,990 ft / 1,826 m 344.16° 331.99° Asphalt 0 ft / 0 m 0 ft / 0 m
8 79 ft / 24 m 1,993 ft / 608 m 98.42° 86.25° Asphalt 0 ft / 0 m 0 ft / 0 m